sensor_id;sensor_type;location;lat;lon;timestamp;P1;durP1;ratioP1;P2;durP2;ratioP2
10491;SDS011;5293;51.464;-2.566;2023-05-10T00:02:06;28.60;;;11.30;;
10491;SDS011;5293;51.464;-2.566;2023-05-10T00:04:31;31.17;;;11.67;;
10491;SDS011;5293;51.464;-2.566;2023-05-10T00:06:57;21.63;;;11.57;;
10491;SDS011;5293;51.464;-2.566;2023-05-10T00:09:23;27.70;;;12.23;;
10491;SDS011;5293;51.464;-2.566;2023-05-10T00:11:49;30.70;;;14.03;;
10491;SDS011;5293;51.464;-2.566;2023-05-10T00:14:14;32.00;;;14.37;;
10491;SDS011;5293;51.464;-2.566;2023-05-10T00:16:40;32.43;;;14.80;;
10491;SDS011;5293;51.464;-2.566;2023-05-10T00:19:06;34.93;;;14.87;;
10491;SDS011;5293;51.464;-2.566;2023-05-10T00:21:31;34.53;;;15.20;;
10491;SDS011;5293;51.464;-2.566;2023-05-10T00:23:58;38.13;;;15.77;;
10491;SDS011;5293;51.464;-2.566;2023-05-10T00:26:24;33.20;;;15.60;;
10491;SDS011;5293;51.464;-2.566;2023-05-10T00:28:50;35.20;;;15.17;;
10491;SDS011;5293;51.464;-2.566;2023-05-10T00:31:16;36.83;;;15.83;;
10491;SDS011;5293;51.464;-2.566;2023-05-10T00:33:41;31.93;;;16.30;;
10491;SDS011;5293;51.464;-2.566;2023-05-10T00:36:07;35.10;;;17.10;;
10491;SDS011;5293;51.464;-2.566;2023-05-10T00:38:33;30.10;;;16.13;;
10491;SDS011;5293;51.464;-2.566;2023-05-10T00:40:59;37.17;;;16.53;;
10491;SDS011;5293;51.464;-2.566;2023-05-10T00:43:25;33.80;;;17.33;;
10491;SDS011;5293;51.464;-2.566;2023-05-10T00:45:50;40.27;;;17.83;;
10491;SDS011;5293;51.464;-2.566;2023-05-10T00:48:16;37.20;;;17.33;;
10491;SDS011;5293;51.464;-2.566;2023-05-10T00:50:42;36.07;;;18.60;;
10491;SDS011;5293;51.464;-2.566;2023-05-10T00:53:08;37.67;;;18.27;;
10491;SDS011;5293;51.464;-2.566;2023-05-10T00:55:34;42.00;;;17.53;;
10491;SDS011;5293;51.464;-2.566;2023-05-10T00:58:00;40.70;;;18.63;;
10491;SDS011;5293;51.464;-2.566;2023-05-10T01:00:26;35.50;;;17.93;;
10491;SDS011;5293;51.464;-2.566;2023-05-10T01:02:53;32.90;;;17.60;;
10491;SDS011;5293;51.464;-2.566;2023-05-10T01:05:19;41.60;;;18.43;;
10491;SDS011;5293;51.464;-2.566;2023-05-10T01:07:44;29.70;;;16.97;;
10491;SDS011;5293;51.464;-2.566;2023-05-10T01:10:10;42.03;;;18.10;;
10491;SDS011;5293;51.464;-2.566;2023-05-10T01:12:37;36.07;;;18.53;;
10491;SDS011;5293;51.464;-2.566;2023-05-10T01:15:05;39.73;;;18.53;;
10491;SDS011;5293;51.464;-2.566;2023-05-10T01:17:34;35.80;;;17.17;;
10491;SDS011;5293;51.464;-2.566;2023-05-10T01:20:02;32.20;;;17.13;;
10491;SDS011;5293;51.464;-2.566;2023-05-10T01:22:40;33.87;;;16.80;;
10491;SDS011;5293;51.464;-2.566;2023-05-10T01:25:14;34.63;;;16.77;;
10491;SDS011;5293;51.464;-2.566;2023-05-10T01:28:12;34.13;;;16.73;;
10491;SDS011;5293;51.464;-2.566;2023-05-10T01:33:42;38.60;;;17.00;;
10491;SDS011;5293;51.464;-2.566;2023-05-10T01:41:48;33.03;;;18.93;;
10491;SDS011;5293;51.464;-2.566;2023-05-10T01:47:15;44.37;;;20.40;;
10491;SDS011;5293;51.464;-2.566;2023-05-10T01:49:49;38.13;;;19.83;;
10491;SDS011;5293;51.464;-2.566;2023-05-10T01:52:18;36.07;;;18.80;;
10491;SDS011;5293;51.464;-2.566;2023-05-10T01:54:49;35.57;;;19.40;;
10491;SDS011;5293;51.464;-2.566;2023-05-10T01:57:25;37.97;;;19.17;;
10491;SDS011;5293;51.464;-2.566;2023-05-10T01:59:56;32.47;;;18.80;;
10491;SDS011;5293;51.464;-2.566;2023-05-10T02:02:25;29.90;;;18.17;;
10491;SDS011;5293;51.464;-2.566;2023-05-10T02:04:53;37.00;;;17.57;;
10491;SDS011;5293;51.464;-2.566;2023-05-10T02:07:20;32.37;;;17.87;;
10491;SDS011;5293;51.464;-2.566;2023-05-10T02:09:48;36.83;;;17.57;;
10491;SDS011;5293;51.464;-2.566;2023-05-10T02:12:15;35.67;;;17.23;;
10491;SDS011;5293;51.464;-2.566;2023-05-10T02:14:41;26.47;;;16.63;;
10491;SDS011;5293;51.464;-2.566;2023-05-10T02:17:07;32.17;;;18.53;;
10491;SDS011;5293;51.464;-2.566;2023-05-10T02:19:36;35.07;;;16.90;;
10491;SDS011;5293;51.464;-2.566;2023-05-10T02:22:04;30.70;;;16.13;;
10491;SDS011;5293;51.464;-2.566;2023-05-10T02:24:31;27.57;;;16.83;;
10491;SDS011;5293;51.464;-2.566;2023-05-10T02:26:58;34.03;;;16.80;;
10491;SDS011;5293;51.464;-2.566;2023-05-10T02:29:27;29.73;;;16.57;;
10491;SDS011;5293;51.464;-2.566;2023-05-10T02:31:54;32.27;;;15.33;;
10491;SDS011;5293;51.464;-2.566;2023-05-10T02:34:21;29.07;;;15.53;;
10491;SDS011;5293;51.464;-2.566;2023-05-10T02:36:48;31.20;;;14.73;;
10491;SDS011;5293;51.464;-2.566;2023-05-10T02:39:15;30.37;;;14.53;;
10491;SDS011;5293;51.464;-2.566;2023-05-10T02:41:43;27.53;;;15.60;;
10491;SDS011;5293;51.464;-2.566;2023-05-10T02:44:11;27.67;;;15.97;;
10491;SDS011;5293;51.464;-2.566;2023-05-10T02:46:40;23.80;;;14.73;;
10491;SDS011;5293;51.464;-2.566;2023-05-10T02:49:05;26.80;;;14.70;;
10491;SDS011;5293;51.464;-2.566;2023-05-10T02:51:32;29.53;;;14.33;;
10491;SDS011;5293;51.464;-2.566;2023-05-10T02:54:01;26.43;;;13.73;;
10491;SDS011;5293;51.464;-2.566;2023-05-10T02:56:35;21.67;;;13.20;;
10491;SDS011;5293;51.464;-2.566;2023-05-10T02:59:04;26.90;;;14.87;;
10491;SDS011;5293;51.464;-2.566;2023-05-10T03:01:30;28.03;;;12.50;;
10491;SDS011;5293;51.464;-2.566;2023-05-10T03:03:55;28.27;;;13.97;;
10491;SDS011;5293;51.464;-2.566;2023-05-10T03:06:21;23.30;;;13.37;;
10491;SDS011;5293;51.464;-2.566;2023-05-10T03:08:47;26.97;;;11.93;;
10491;SDS011;5293;51.464;-2.566;2023-05-10T03:16:46;27.07;;;11.67;;
10491;SDS011;5293;51.464;-2.566;2023-05-10T03:19:20;30.23;;;12.67;;
10491;SDS011;5293;51.464;-2.566;2023-05-10T03:21:52;24.43;;;11.57;;
10491;SDS011;5293;51.464;-2.566;2023-05-10T03:24:20;22.87;;;11.10;;
10491;SDS011;5293;51.464;-2.566;2023-05-10T03:26:47;24.47;;;12.07;;
10491;SDS011;5293;51.464;-2.566;2023-05-10T03:29:15;30.43;;;12.10;;
10491;SDS011;5293;51.464;-2.566;2023-05-10T03:31:42;27.50;;;11.87;;
10491;SDS011;5293;51.464;-2.566;2023-05-10T03:34:08;30.77;;;12.00;;
10491;SDS011;5293;51.464;-2.566;2023-05-10T03:36:33;26.80;;;11.67;;
10491;SDS011;5293;51.464;-2.566;2023-05-10T03:38:59;31.47;;;11.40;;
10491;SDS011;5293;51.464;-2.566;2023-05-10T03:41:25;25.83;;;10.93;;
10491;SDS011;5293;51.464;-2.566;2023-05-10T03:43:51;23.27;;;10.50;;
10491;SDS011;5293;51.464;-2.566;2023-05-10T03:46:16;21.73;;;10.80;;
10491;SDS011;5293;51.464;-2.566;2023-05-10T03:48:42;24.37;;;11.07;;
10491;SDS011;5293;51.464;-2.566;2023-05-10T03:51:08;27.67;;;10.83;;
10491;SDS011;5293;51.464;-2.566;2023-05-10T03:53:33;25.40;;;9.60;;
10491;SDS011;5293;51.464;-2.566;2023-05-10T03:55:59;26.63;;;10.50;;
10491;SDS011;5293;51.464;-2.566;2023-05-10T03:58:25;24.67;;;10.17;;
10491;SDS011;5293;51.464;-2.566;2023-05-10T04:00:51;23.13;;;10.13;;
10491;SDS011;5293;51.464;-2.566;2023-05-10T04:03:17;27.70;;;10.10;;
10491;SDS011;5293;51.464;-2.566;2023-05-10T04:05:43;29.83;;;11.13;;
10491;SDS011;5293;51.464;-2.566;2023-05-10T04:08:08;28.13;;;10.13;;
10491;SDS011;5293;51.464;-2.566;2023-05-10T04:10:34;24.97;;;10.20;;
10491;SDS011;5293;51.464;-2.566;2023-05-10T04:13:00;26.93;;;9.93;;
10491;SDS011;5293;51.464;-2.566;2023-05-10T04:15:25;27.37;;;10.10;;
10491;SDS011;5293;51.464;-2.566;2023-05-10T04:17:51;31.80;;;12.20;;
10491;SDS011;5293;51.464;-2.566;2023-05-10T04:20:17;32.73;;;11.20;;
10491;SDS011;5293;51.464;-2.566;2023-05-10T04:22:43;30.03;;;10.93;;
10491;SDS011;5293;51.464;-2.566;2023-05-10T04:25:08;27.17;;;10.27;;
10491;SDS011;5293;51.464;-2.566;2023-05-10T04:27:34;29.03;;;11.53;;
10491;SDS011;5293;51.464;-2.566;2023-05-10T04:30:00;29.00;;;11.77;;
10491;SDS011;5293;51.464;-2.566;2023-05-10T04:32:27;31.63;;;10.97;;
10491;SDS011;5293;51.464;-2.566;2023-05-10T04:34:53;31.17;;;11.20;;
10491;SDS011;5293;51.464;-2.566;2023-05-10T04:37:18;36.70;;;10.37;;
10491;SDS011;5293;51.464;-2.566;2023-05-10T04:39:46;28.87;;;11.03;;
10491;SDS011;5293;51.464;-2.566;2023-05-10T04:42:11;29.23;;;11.13;;
10491;SDS011;5293;51.464;-2.566;2023-05-10T04:44:39;24.47;;;10.30;;
10491;SDS011;5293;51.464;-2.566;2023-05-10T04:47:05;26.50;;;10.87;;
10491;SDS011;5293;51.464;-2.566;2023-05-10T04:49:31;28.23;;;10.77;;
10491;SDS011;5293;51.464;-2.566;2023-05-10T04:51:57;32.70;;;11.97;;
10491;SDS011;5293;51.464;-2.566;2023-05-10T04:54:22;29.63;;;10.63;;
10491;SDS011;5293;51.464;-2.566;2023-05-10T04:56:48;27.30;;;11.67;;
10491;SDS011;5293;51.464;-2.566;2023-05-10T04:59:14;32.20;;;12.20;;
10491;SDS011;5293;51.464;-2.566;2023-05-10T05:01:39;25.63;;;11.37;;
10491;SDS011;5293;51.464;-2.566;2023-05-10T05:04:05;23.90;;;10.00;;
10491;SDS011;5293;51.464;-2.566;2023-05-10T05:06:31;31.93;;;10.27;;
10491;SDS011;5293;51.464;-2.566;2023-05-10T05:08:57;27.27;;;10.60;;
10491;SDS011;5293;51.464;-2.566;2023-05-10T05:11:23;24.63;;;9.77;;
10491;SDS011;5293;51.464;-2.566;2023-05-10T05:13:48;29.57;;;11.60;;
10491;SDS011;5293;51.464;-2.566;2023-05-10T05:16:14;24.37;;;10.93;;
10491;SDS011;5293;51.464;-2.566;2023-05-10T05:18:40;31.20;;;9.87;;
10491;SDS011;5293;51.464;-2.566;2023-05-10T05:21:15;38.90;;;11.73;;
10491;SDS011;5293;51.464;-2.566;2023-05-10T05:23:41;25.13;;;10.30;;
10491;SDS011;5293;51.464;-2.566;2023-05-10T05:26:07;25.87;;;11.03;;
10491;SDS011;5293;51.464;-2.566;2023-05-10T05:28:33;28.43;;;11.83;;
10491;SDS011;5293;51.464;-2.566;2023-05-10T05:31:02;29.33;;;12.67;;
10491;SDS011;5293;51.464;-2.566;2023-05-10T05:33:31;29.93;;;11.87;;
10491;SDS011;5293;51.464;-2.566;2023-05-10T05:35:56;29.10;;;12.00;;
10491;SDS011;5293;51.464;-2.566;2023-05-10T05:38:22;34.13;;;12.93;;
10491;SDS011;5293;51.464;-2.566;2023-05-10T05:40:48;33.77;;;13.03;;
10491;SDS011;5293;51.464;-2.566;2023-05-10T05:43:14;26.10;;;11.10;;
10491;SDS011;5293;51.464;-2.566;2023-05-10T05:45:40;34.27;;;12.63;;
10491;SDS011;5293;51.464;-2.566;2023-05-10T05:48:05;32.87;;;12.00;;
10491;SDS011;5293;51.464;-2.566;2023-05-10T05:50:31;31.50;;;12.93;;
10491;SDS011;5293;51.464;-2.566;2023-05-10T05:52:57;29.53;;;12.70;;
10491;SDS011;5293;51.464;-2.566;2023-05-10T05:55:22;27.90;;;11.70;;
10491;SDS011;5293;51.464;-2.566;2023-05-10T05:57:49;32.73;;;12.47;;
10491;SDS011;5293;51.464;-2.566;2023-05-10T06:00:14;24.33;;;11.13;;
10491;SDS011;5293;51.464;-2.566;2023-05-10T06:02:41;30.37;;;12.23;;
10491;SDS011;5293;51.464;-2.566;2023-05-10T06:05:06;30.43;;;11.33;;
10491;SDS011;5293;51.464;-2.566;2023-05-10T06:07:32;28.63;;;9.97;;
10491;SDS011;5293;51.464;-2.566;2023-05-10T06:09:58;21.27;;;9.80;;
10491;SDS011;5293;51.464;-2.566;2023-05-10T06:12:24;28.83;;;9.20;;
10491;SDS011;5293;51.464;-2.566;2023-05-10T06:14:49;26.17;;;9.17;;
10491;SDS011;5293;51.464;-2.566;2023-05-10T06:17:15;30.17;;;8.83;;
10491;SDS011;5293;51.464;-2.566;2023-05-10T06:19:41;29.67;;;8.13;;
10491;SDS011;5293;51.464;-2.566;2023-05-10T06:22:06;23.13;;;7.57;;
10491;SDS011;5293;51.464;-2.566;2023-05-10T06:24:32;21.83;;;7.17;;
10491;SDS011;5293;51.464;-2.566;2023-05-10T06:26:57;20.57;;;6.47;;
10491;SDS011;5293;51.464;-2.566;2023-05-10T06:29:25;22.00;;;5.80;;
10491;SDS011;5293;51.464;-2.566;2023-05-10T06:31:50;16.53;;;5.80;;
10491;SDS011;5293;51.464;-2.566;2023-05-10T06:34:16;23.43;;;6.07;;
10491;SDS011;5293;51.464;-2.566;2023-05-10T06:36:42;21.97;;;5.80;;
10491;SDS011;5293;51.464;-2.566;2023-05-10T06:39:07;15.80;;;5.40;;
10491;SDS011;5293;51.464;-2.566;2023-05-10T06:41:33;18.27;;;5.70;;
10491;SDS011;5293;51.464;-2.566;2023-05-10T06:43:59;19.00;;;5.07;;
10491;SDS011;5293;51.464;-2.566;2023-05-10T06:46:24;16.10;;;4.50;;
10491;SDS011;5293;51.464;-2.566;2023-05-10T06:48:50;14.23;;;3.93;;
10491;SDS011;5293;51.464;-2.566;2023-05-10T06:51:18;11.90;;;4.20;;
10491;SDS011;5293;51.464;-2.566;2023-05-10T06:53:44;19.47;;;4.97;;
10491;SDS011;5293;51.464;-2.566;2023-05-10T06:56:10;21.43;;;6.50;;
10491;SDS011;5293;51.464;-2.566;2023-05-10T06:58:36;17.30;;;4.33;;
10491;SDS011;5293;51.464;-2.566;2023-05-10T07:01:02;12.70;;;3.60;;
10491;SDS011;5293;51.464;-2.566;2023-05-10T07:03:29;10.60;;;3.47;;
10491;SDS011;5293;51.464;-2.566;2023-05-10T07:05:59;19.03;;;4.03;;
10491;SDS011;5293;51.464;-2.566;2023-05-10T07:08:29;15.73;;;4.30;;
10491;SDS011;5293;51.464;-2.566;2023-05-10T07:11:05;16.50;;;4.27;;
10491;SDS011;5293;51.464;-2.566;2023-05-10T07:13:35;18.00;;;4.17;;
10491;SDS011;5293;51.464;-2.566;2023-05-10T07:16:01;12.63;;;3.80;;
10491;SDS011;5293;51.464;-2.566;2023-05-10T07:18:27;15.47;;;3.87;;
10491;SDS011;5293;51.464;-2.566;2023-05-10T07:20:53;11.57;;;4.10;;
10491;SDS011;5293;51.464;-2.566;2023-05-10T07:23:20;11.77;;;3.63;;
10491;SDS011;5293;51.464;-2.566;2023-05-10T07:25:46;19.33;;;4.40;;
10491;SDS011;5293;51.464;-2.566;2023-05-10T07:28:13;14.30;;;4.27;;
10491;SDS011;5293;51.464;-2.566;2023-05-10T07:30:39;16.83;;;4.23;;
10491;SDS011;5293;51.464;-2.566;2023-05-10T07:33:04;10.50;;;4.13;;
10491;SDS011;5293;51.464;-2.566;2023-05-10T07:35:30;13.40;;;3.63;;
10491;SDS011;5293;51.464;-2.566;2023-05-10T07:37:56;17.63;;;3.80;;
10491;SDS011;5293;51.464;-2.566;2023-05-10T07:40:22;13.90;;;4.07;;
10491;SDS011;5293;51.464;-2.566;2023-05-10T07:42:47;11.97;;;3.90;;
10491;SDS011;5293;51.464;-2.566;2023-05-10T07:45:13;16.37;;;4.00;;
10491;SDS011;5293;51.464;-2.566;2023-05-10T07:47:39;14.37;;;4.40;;
10491;SDS011;5293;51.464;-2.566;2023-05-10T07:50:04;18.60;;;4.57;;
10491;SDS011;5293;51.464;-2.566;2023-05-10T07:52:31;19.60;;;4.23;;
10491;SDS011;5293;51.464;-2.566;2023-05-10T07:54:56;14.90;;;4.17;;
10491;SDS011;5293;51.464;-2.566;2023-05-10T07:57:22;16.77;;;4.80;;
10491;SDS011;5293;51.464;-2.566;2023-05-10T07:59:48;20.10;;;4.00;;
10491;SDS011;5293;51.464;-2.566;2023-05-10T08:02:13;12.77;;;4.00;;
10491;SDS011;5293;51.464;-2.566;2023-05-10T08:04:39;16.00;;;4.00;;
10491;SDS011;5293;51.464;-2.566;2023-05-10T08:07:05;13.13;;;4.23;;
10491;SDS011;5293;51.464;-2.566;2023-05-10T08:09:30;16.33;;;4.30;;
10491;SDS011;5293;51.464;-2.566;2023-05-10T08:11:56;15.87;;;4.17;;
10491;SDS011;5293;51.464;-2.566;2023-05-10T08:14:23;11.53;;;3.47;;
10491;SDS011;5293;51.464;-2.566;2023-05-10T08:16:49;12.50;;;3.87;;
10491;SDS011;5293;51.464;-2.566;2023-05-10T08:19:15;12.73;;;4.10;;
10491;SDS011;5293;51.464;-2.566;2023-05-10T08:21:44;22.57;;;4.53;;
10491;SDS011;5293;51.464;-2.566;2023-05-10T08:24:10;12.20;;;3.87;;
10491;SDS011;5293;51.464;-2.566;2023-05-10T08:26:36;13.13;;;4.00;;
10491;SDS011;5293;51.464;-2.566;2023-05-10T08:29:01;15.33;;;4.47;;
10491;SDS011;5293;51.464;-2.566;2023-05-10T08:31:27;17.60;;;4.60;;
10491;SDS011;5293;51.464;-2.566;2023-05-10T08:33:53;16.13;;;4.67;;
10491;SDS011;5293;51.464;-2.566;2023-05-10T08:36:18;21.33;;;4.60;;
10491;SDS011;5293;51.464;-2.566;2023-05-10T08:38:47;17.23;;;3.87;;
10491;SDS011;5293;51.464;-2.566;2023-05-10T08:41:15;19.33;;;4.70;;
10491;SDS011;5293;51.464;-2.566;2023-05-10T08:43:41;17.30;;;4.37;;
10491;SDS011;5293;51.464;-2.566;2023-05-10T08:46:11;13.27;;;4.07;;
10491;SDS011;5293;51.464;-2.566;2023-05-10T08:48:43;15.07;;;4.03;;
10491;SDS011;5293;51.464;-2.566;2023-05-10T08:51:13;18.07;;;4.50;;
10491;SDS011;5293;51.464;-2.566;2023-05-10T08:53:42;13.57;;;4.00;;
10491;SDS011;5293;51.464;-2.566;2023-05-10T08:56:08;13.30;;;4.10;;
10491;SDS011;5293;51.464;-2.566;2023-05-10T08:58:34;12.60;;;3.83;;
10491;SDS011;5293;51.464;-2.566;2023-05-10T09:01:00;16.97;;;4.33;;
10491;SDS011;5293;51.464;-2.566;2023-05-10T09:03:26;16.03;;;5.30;;
10491;SDS011;5293;51.464;-2.566;2023-05-10T09:05:52;14.90;;;5.03;;
10491;SDS011;5293;51.464;-2.566;2023-05-10T09:08:17;17.10;;;4.13;;
10491;SDS011;5293;51.464;-2.566;2023-05-10T09:10:44;15.77;;;5.53;;
10491;SDS011;5293;51.464;-2.566;2023-05-10T09:13:14;14.70;;;5.00;;
10491;SDS011;5293;51.464;-2.566;2023-05-10T09:15:40;15.23;;;5.30;;
10491;SDS011;5293;51.464;-2.566;2023-05-10T09:18:06;20.10;;;5.87;;
10491;SDS011;5293;51.464;-2.566;2023-05-10T09:20:31;17.20;;;5.63;;
10491;SDS011;5293;51.464;-2.566;2023-05-10T09:22:57;20.17;;;6.30;;
10491;SDS011;5293;51.464;-2.566;2023-05-10T09:25:23;22.03;;;9.93;;
10491;SDS011;5293;51.464;-2.566;2023-05-10T09:27:49;16.17;;;5.70;;
10491;SDS011;5293;51.464;-2.566;2023-05-10T09:32:50;19.47;;;5.00;;
10491;SDS011;5293;51.464;-2.566;2023-05-10T09:35:16;16.97;;;5.17;;
10491;SDS011;5293;51.464;-2.566;2023-05-10T09:37:45;17.37;;;5.20;;
10491;SDS011;5293;51.464;-2.566;2023-05-10T09:40:16;14.47;;;4.73;;
10491;SDS011;5293;51.464;-2.566;2023-05-10T09:42:56;15.03;;;4.77;;
10491;SDS011;5293;51.464;-2.566;2023-05-10T09:45:26;21.63;;;5.05;;
10491;SDS011;5293;51.464;-2.566;2023-05-10T09:47:56;16.47;;;5.07;;
10491;SDS011;5293;51.464;-2.566;2023-05-10T09:50:23;14.40;;;4.27;;
10491;SDS011;5293;51.464;-2.566;2023-05-10T09:52:50;19.70;;;5.60;;
10491;SDS011;5293;51.464;-2.566;2023-05-10T09:55:23;21.88;;;4.38;;
10491;SDS011;5293;51.464;-2.566;2023-05-10T09:57:58;15.47;;;4.90;;
10491;SDS011;5293;51.464;-2.566;2023-05-10T10:00:25;15.93;;;4.20;;
10491;SDS011;5293;51.464;-2.566;2023-05-10T10:02:58;15.63;;;4.17;;
10491;SDS011;5293;51.464;-2.566;2023-05-10T10:05:31;16.63;;;4.97;;
10491;SDS011;5293;51.464;-2.566;2023-05-10T10:07:57;16.90;;;4.17;;
10491;SDS011;5293;51.464;-2.566;2023-05-10T10:10:24;13.07;;;3.33;;
10491;SDS011;5293;51.464;-2.566;2023-05-10T10:12:50;12.93;;;3.53;;
10491;SDS011;5293;51.464;-2.566;2023-05-10T10:15:16;12.17;;;3.30;;
10491;SDS011;5293;51.464;-2.566;2023-05-10T10:17:43;11.17;;;3.23;;
10491;SDS011;5293;51.464;-2.566;2023-05-10T10:20:08;8.53;;;3.13;;
10491;SDS011;5293;51.464;-2.566;2023-05-10T10:22:36;12.33;;;2.80;;
10491;SDS011;5293;51.464;-2.566;2023-05-10T10:25:02;12.47;;;2.70;;
10491;SDS011;5293;51.464;-2.566;2023-05-10T10:32:59;13.10;;;2.73;;
10491;SDS011;5293;51.464;-2.566;2023-05-10T10:35:45;10.30;;;2.90;;
10491;SDS011;5293;51.464;-2.566;2023-05-10T10:38:14;14.73;;;2.73;;
10491;SDS011;5293;51.464;-2.566;2023-05-10T10:40:41;14.57;;;3.17;;
10491;SDS011;5293;51.464;-2.566;2023-05-10T10:46:31;11.80;;;2.77;;
10491;SDS011;5293;51.464;-2.566;2023-05-10T10:48:49;12.90;;;3.47;;
10491;SDS011;5293;51.464;-2.566;2023-05-10T10:51:18;11.67;;;2.97;;
10491;SDS011;5293;51.464;-2.566;2023-05-10T10:53:44;7.10;;;2.80;;
10491;SDS011;5293;51.464;-2.566;2023-05-10T10:56:12;10.07;;;2.93;;
10491;SDS011;5293;51.464;-2.566;2023-05-10T10:58:40;15.43;;;3.00;;
10491;SDS011;5293;51.464;-2.566;2023-05-10T11:01:10;14.57;;;3.00;;
10491;SDS011;5293;51.464;-2.566;2023-05-10T11:03:37;14.93;;;3.50;;
10491;SDS011;5293;51.464;-2.566;2023-05-10T11:06:02;13.63;;;3.00;;
10491;SDS011;5293;51.464;-2.566;2023-05-10T11:08:29;15.07;;;3.57;;
10491;SDS011;5293;51.464;-2.566;2023-05-10T11:13:38;11.87;;;2.77;;
10491;SDS011;5293;51.464;-2.566;2023-05-10T11:16:19;15.20;;;3.17;;
10491;SDS011;5293;51.464;-2.566;2023-05-10T11:21:27;19.77;;;3.77;;
10491;SDS011;5293;51.464;-2.566;2023-05-10T11:23:58;11.87;;;2.53;;
10491;SDS011;5293;51.464;-2.566;2023-05-10T11:26:25;13.27;;;3.40;;
10491;SDS011;5293;51.464;-2.566;2023-05-10T11:29:01;15.70;;;3.50;;
10491;SDS011;5293;51.464;-2.566;2023-05-10T11:31:28;10.57;;;3.50;;
10491;SDS011;5293;51.464;-2.566;2023-05-10T11:33:54;15.93;;;3.57;;
10491;SDS011;5293;51.464;-2.566;2023-05-10T11:36:26;12.00;;;2.97;;
10491;SDS011;5293;51.464;-2.566;2023-05-10T11:38:53;11.53;;;2.77;;
10491;SDS011;5293;51.464;-2.566;2023-05-10T11:41:20;10.57;;;2.40;;
10491;SDS011;5293;51.464;-2.566;2023-05-10T11:43:48;9.30;;;2.03;;
10491;SDS011;5293;51.464;-2.566;2023-05-10T11:46:15;8.53;;;2.17;;
10491;SDS011;5293;51.464;-2.566;2023-05-10T11:48:43;7.03;;;2.00;;
10491;SDS011;5293;51.464;-2.566;2023-05-10T11:51:09;7.50;;;2.50;;
10491;SDS011;5293;51.464;-2.566;2023-05-10T11:53:36;18.27;;;3.43;;
10491;SDS011;5293;51.464;-2.566;2023-05-10T11:56:07;8.63;;;2.07;;
10491;SDS011;5293;51.464;-2.566;2023-05-10T11:58:34;6.70;;;2.47;;
10491;SDS011;5293;51.464;-2.566;2023-05-10T12:01:01;8.07;;;2.10;;
10491;SDS011;5293;51.464;-2.566;2023-05-10T12:03:27;10.60;;;2.67;;
10491;SDS011;5293;51.464;-2.566;2023-05-10T12:05:54;8.70;;;2.20;;
10491;SDS011;5293;51.464;-2.566;2023-05-10T12:08:21;8.03;;;1.80;;
10491;SDS011;5293;51.464;-2.566;2023-05-10T12:10:48;8.30;;;2.30;;
10491;SDS011;5293;51.464;-2.566;2023-05-10T12:13:14;10.73;;;2.73;;
10491;SDS011;5293;51.464;-2.566;2023-05-10T12:15:40;7.10;;;2.80;;
10491;SDS011;5293;51.464;-2.566;2023-05-10T12:18:11;7.63;;;2.47;;
10491;SDS011;5293;51.464;-2.566;2023-05-10T12:20:40;10.57;;;3.37;;
10491;SDS011;5293;51.464;-2.566;2023-05-10T12:23:08;9.67;;;2.50;;
10491;SDS011;5293;51.464;-2.566;2023-05-10T12:25:35;7.27;;;2.13;;
10491;SDS011;5293;51.464;-2.566;2023-05-10T12:28:03;13.73;;;2.83;;
10491;SDS011;5293;51.464;-2.566;2023-05-10T12:30:31;9.07;;;2.53;;
10491;SDS011;5293;51.464;-2.566;2023-05-10T12:33:01;6.97;;;1.77;;
10491;SDS011;5293;51.464;-2.566;2023-05-10T12:35:32;8.40;;;3.17;;
10491;SDS011;5293;51.464;-2.566;2023-05-10T12:37:58;11.23;;;2.87;;
10491;SDS011;5293;51.464;-2.566;2023-05-10T12:40:24;9.27;;;2.20;;
10491;SDS011;5293;51.464;-2.566;2023-05-10T12:42:50;10.60;;;2.40;;
10491;SDS011;5293;51.464;-2.566;2023-05-10T12:45:17;7.57;;;2.37;;
10491;SDS011;5293;51.464;-2.566;2023-05-10T12:47:43;8.07;;;2.03;;
10491;SDS011;5293;51.464;-2.566;2023-05-10T12:50:09;12.90;;;2.50;;
10491;SDS011;5293;51.464;-2.566;2023-05-10T12:52:35;7.90;;;2.67;;
10491;SDS011;5293;51.464;-2.566;2023-05-10T12:55:01;5.80;;;1.73;;
10491;SDS011;5293;51.464;-2.566;2023-05-10T12:57:28;3.90;;;1.63;;
10491;SDS011;5293;51.464;-2.566;2023-05-10T12:59:54;7.93;;;1.87;;
10491;SDS011;5293;51.464;-2.566;2023-05-10T13:02:20;8.23;;;2.43;;
10491;SDS011;5293;51.464;-2.566;2023-05-10T13:04:47;8.13;;;2.60;;
10491;SDS011;5293;51.464;-2.566;2023-05-10T13:07:13;4.43;;;1.30;;
10491;SDS011;5293;51.464;-2.566;2023-05-10T13:09:39;7.63;;;1.90;;
10491;SDS011;5293;51.464;-2.566;2023-05-10T13:12:05;8.27;;;1.90;;
10491;SDS011;5293;51.464;-2.566;2023-05-10T13:14:31;11.97;;;1.87;;
10491;SDS011;5293;51.464;-2.566;2023-05-10T13:16:56;6.93;;;1.67;;
10491;SDS011;5293;51.464;-2.566;2023-05-10T13:19:22;4.97;;;1.70;;
10491;SDS011;5293;51.464;-2.566;2023-05-10T13:21:48;7.73;;;1.73;;
10491;SDS011;5293;51.464;-2.566;2023-05-10T13:24:13;9.97;;;1.87;;
10491;SDS011;5293;51.464;-2.566;2023-05-10T13:26:40;4.33;;;1.67;;
10491;SDS011;5293;51.464;-2.566;2023-05-10T13:29:06;7.10;;;1.53;;
10491;SDS011;5293;51.464;-2.566;2023-05-10T13:31:32;5.67;;;1.80;;
10491;SDS011;5293;51.464;-2.566;2023-05-10T13:33:58;13.00;;;2.43;;
10491;SDS011;5293;51.464;-2.566;2023-05-10T13:36:23;8.90;;;1.57;;
10491;SDS011;5293;51.464;-2.566;2023-05-10T13:38:49;3.17;;;1.43;;
10491;SDS011;5293;51.464;-2.566;2023-05-10T13:41:15;5.07;;;1.70;;
10491;SDS011;5293;51.464;-2.566;2023-05-10T13:43:40;4.37;;;1.40;;
10491;SDS011;5293;51.464;-2.566;2023-05-10T13:46:06;5.97;;;1.80;;
10491;SDS011;5293;51.464;-2.566;2023-05-10T13:48:32;5.70;;;1.30;;
10491;SDS011;5293;51.464;-2.566;2023-05-10T13:50:57;7.40;;;1.60;;
10491;SDS011;5293;51.464;-2.566;2023-05-10T13:53:23;3.60;;;1.40;;
10491;SDS011;5293;51.464;-2.566;2023-05-10T13:55:48;2.43;;;1.10;;
10491;SDS011;5293;51.464;-2.566;2023-05-10T13:58:14;4.07;;;1.20;;
10491;SDS011;5293;51.464;-2.566;2023-05-10T14:00:40;3.67;;;1.20;;
10491;SDS011;5293;51.464;-2.566;2023-05-10T14:03:05;3.60;;;1.70;;
10491;SDS011;5293;51.464;-2.566;2023-05-10T14:05:33;2.23;;;0.80;;
10491;SDS011;5293;51.464;-2.566;2023-05-10T14:07:59;2.83;;;1.13;;
10491;SDS011;5293;51.464;-2.566;2023-05-10T14:10:25;2.47;;;0.87;;
10491;SDS011;5293;51.464;-2.566;2023-05-10T14:12:51;1.57;;;0.80;;
10491;SDS011;5293;51.464;-2.566;2023-05-10T14:15:16;1.90;;;1.00;;
10491;SDS011;5293;51.464;-2.566;2023-05-10T14:17:43;3.80;;;0.70;;
10491;SDS011;5293;51.464;-2.566;2023-05-10T14:20:08;2.90;;;1.00;;
10491;SDS011;5293;51.464;-2.566;2023-05-10T14:22:34;3.13;;;1.07;;
10491;SDS011;5293;51.464;-2.566;2023-05-10T14:25:00;4.47;;;0.97;;
10491;SDS011;5293;51.464;-2.566;2023-05-10T14:27:26;2.47;;;1.00;;
10491;SDS011;5293;51.464;-2.566;2023-05-10T14:29:52;2.67;;;0.87;;
10491;SDS011;5293;51.464;-2.566;2023-05-10T14:32:18;2.23;;;0.80;;
10491;SDS011;5293;51.464;-2.566;2023-05-10T14:34:44;5.67;;;1.30;;
10491;SDS011;5293;51.464;-2.566;2023-05-10T14:37:10;5.77;;;0.97;;
10491;SDS011;5293;51.464;-2.566;2023-05-10T14:39:36;3.80;;;1.00;;
10491;SDS011;5293;51.464;-2.566;2023-05-10T14:42:02;3.23;;;0.90;;
10491;SDS011;5293;51.464;-2.566;2023-05-10T14:44:28;3.57;;;1.10;;
10491;SDS011;5293;51.464;-2.566;2023-05-10T14:46:54;4.17;;;1.43;;
10491;SDS011;5293;51.464;-2.566;2023-05-10T14:49:20;5.17;;;1.57;;
10491;SDS011;5293;51.464;-2.566;2023-05-10T14:51:47;3.70;;;1.17;;
10491;SDS011;5293;51.464;-2.566;2023-05-10T14:54:13;6.53;;;1.35;;
10491;SDS011;5293;51.464;-2.566;2023-05-10T14:56:39;3.20;;;1.00;;
10491;SDS011;5293;51.464;-2.566;2023-05-10T14:59:06;3.37;;;1.00;;
10491;SDS011;5293;51.464;-2.566;2023-05-10T15:01:32;4.17;;;1.20;;
10491;SDS011;5293;51.464;-2.566;2023-05-10T15:03:59;3.53;;;1.10;;
10491;SDS011;5293;51.464;-2.566;2023-05-10T15:06:34;2.07;;;0.93;;